createdAt,value
2018-09-22T00:00:27.566Z,62.23
2018-09-22T00:01:27.584Z,62.23
2018-09-22T00:02:27.596Z,62.61
2018-09-22T00:03:27.598Z,62.32
2018-09-22T00:04:27.728Z,62.32
2018-09-22T00:05:27.763Z,62.13
2018-09-22T00:06:27.642Z,62.13
2018-09-22T00:07:27.658Z,62.23
2018-09-22T00:08:27.678Z,61.46
2018-09-22T00:09:27.787Z,61.65
2018-09-22T00:10:27.715Z,61.16
2018-09-22T00:11:27.717Z,61.26
2018-09-22T00:12:27.734Z,61.65
2018-09-22T00:13:27.763Z,61.46
2018-09-22T00:14:27.907Z,61.26
2018-09-22T00:15:27.779Z,61.46
2018-09-22T00:16:27.789Z,61.26
2018-09-22T00:17:27.809Z,60.69
2018-09-22T00:18:27.813Z,61.16
2018-09-22T00:19:27.894Z,61.84
2018-09-22T00:20:27.958Z,61.55
2018-09-22T00:21:27.875Z,61.65
2018-09-22T00:22:27.894Z,61.74
2018-09-22T00:23:27.900Z,61.46
2018-09-22T00:24:27.924Z,62.13
2018-09-22T00:25:28.032Z,62.32
2018-09-22T00:26:27.939Z,62.32
2018-09-22T00:27:27.956Z,62.51
2018-09-22T00:28:27.965Z,62.51
2018-09-22T00:29:27.988Z,62.61
2018-09-22T00:30:28.097Z,62.51
2018-09-22T00:31:28.016Z,62.71
2018-09-22T00:32:28.038Z,62.80
2018-09-22T00:33:28.049Z,62.71
2018-09-22T00:34:28.062Z,62.87
2018-09-22T00:35:28.329Z,62.68
2018-09-22T00:36:28.083Z,62.48
2018-09-22T00:37:28.097Z,63.73
2018-09-22T00:38:28.122Z,62.99
2018-09-22T00:39:28.126Z,62.90
2018-09-22T00:40:28.249Z,62.51
2018-09-22T00:41:28.156Z,62.90
2018-09-22T00:42:28.174Z,62.71
2018-09-22T00:43:28.181Z,62.71
2018-09-22T00:44:28.208Z,62.80
2018-09-22T00:45:28.329Z,62.80
2018-09-22T00:46:28.244Z,62.61
2018-09-22T00:47:28.260Z,62.41
2018-09-22T00:48:28.260Z,62.51
2018-09-22T00:49:28.281Z,62.41
2018-09-22T00:50:28.438Z,62.51
2018-09-22T00:51:28.301Z,62.61
2018-09-22T00:52:28.325Z,62.80
2018-09-22T00:53:28.338Z,62.90
2018-09-22T00:54:28.344Z,62.13
2018-09-22T00:55:28.453Z,61.55
2018-09-22T00:56:28.383Z,61.55
2018-09-22T00:57:28.396Z,61.65
2018-09-22T00:58:28.407Z,62.13
2018-09-22T00:59:28.422Z,62.41
2018-09-22T01:00:28.533Z,61.55
2018-09-22T01:01:28.459Z,61.94
2018-09-22T01:02:28.472Z,61.65
2018-09-22T01:03:28.488Z,61.74
2018-09-22T01:04:28.493Z,61.46
2018-09-22T01:05:28.623Z,61.46
2018-09-22T01:06:28.520Z,61.55
2018-09-22T01:07:28.542Z,61.07
2018-09-22T01:08:28.548Z,61.19
2018-09-22T01:09:28.570Z,61.65
2018-09-22T01:10:28.681Z,61.46
2018-09-22T01:11:28.588Z,61.16
2018-09-22T01:12:28.619Z,61.65
2018-09-22T01:13:28.630Z,60.97
2018-09-22T01:14:28.637Z,61.65
2018-09-22T01:15:28.767Z,60.88
2018-09-22T01:16:28.672Z,61.46
2018-09-22T01:17:28.677Z,61.65
2018-09-22T01:18:28.711Z,61.55
2018-09-22T01:19:28.703Z,61.46
2018-09-22T01:20:28.833Z,61.55
2018-09-22T01:21:28.744Z,61.65
2018-09-22T01:22:28.755Z,61.55
2018-09-22T01:23:28.774Z,62.13
2018-09-22T01:24:28.782Z,62.13
2018-09-22T01:25:28.826Z,62.80
2018-09-22T01:26:28.926Z,62.51
2018-09-22T01:27:28.836Z,62.48
2018-09-22T01:28:28.853Z,63.25
2018-09-22T01:29:28.856Z,63.06
2018-09-22T01:30:28.868Z,63.83
2018-09-22T01:31:29.002Z,64.12
2018-09-22T01:32:28.906Z,64.31
2018-09-22T01:33:28.910Z,64.02
2018-09-22T01:34:28.943Z,64.31
2018-09-22T01:35:28.946Z,63.92
2018-09-22T01:36:29.049Z,64.02
2018-09-22T01:37:28.990Z,64.12
2018-09-22T01:38:28.990Z,64.22
2018-09-22T01:39:29.006Z,64.79
2018-09-22T01:40:29.021Z,64.50
2018-09-22T01:41:29.139Z,64.60
2018-09-22T01:42:29.055Z,64.12
2018-09-22T01:43:29.068Z,64.02
2018-09-22T01:44:29.083Z,64.50
2018-09-22T01:45:29.095Z,64.31
2018-09-22T01:46:29.206Z,64.12
2018-09-22T01:47:29.114Z,64.31
2018-09-22T01:48:29.129Z,64.22
2018-09-22T01:49:29.144Z,64.31
2018-09-22T01:50:29.159Z,64.50
2018-09-22T01:51:29.265Z,64.22
2018-09-22T01:52:29.227Z,64.40
2018-09-22T01:53:29.198Z,64.12
2018-09-22T01:54:29.223Z,63.92
2018-09-22T01:55:29.223Z,64.50
2018-09-22T01:56:29.354Z,64.31
2018-09-22T01:57:29.254Z,64.31
2018-09-22T01:58:29.279Z,64.40
2018-09-22T01:59:29.294Z,63.83
2018-09-22T02:00:29.299Z,64.12
2018-09-22T02:01:29.434Z,64.02
2018-09-22T02:02:29.344Z,64.60
2018-09-22T02:03:29.335Z,64.31
2018-09-22T02:04:29.358Z,64.50
2018-09-22T02:05:29.382Z,64.12
2018-09-22T02:06:29.485Z,64.02
2018-09-22T02:07:29.398Z,64.31
2018-09-22T02:08:29.420Z,64.79
2018-09-22T02:09:29.436Z,64.79
2018-09-22T02:10:29.459Z,64.60
2018-09-22T02:11:29.562Z,64.89
2018-09-22T02:12:29.480Z,64.79
2018-09-22T02:13:29.495Z,64.60
2018-09-22T02:14:29.498Z,65.17
2018-09-22T02:15:29.525Z,64.12
2018-09-22T02:16:29.632Z,65.05
2018-09-22T02:17:29.547Z,64.98
2018-09-22T02:18:29.560Z,65.27
2018-09-22T02:19:29.575Z,65.33
2018-09-22T02:20:29.588Z,65.75
2018-09-22T02:21:29.695Z,65.94
2018-09-22T02:22:29.618Z,66.14
2018-09-22T02:23:29.631Z,65.91
2018-09-22T02:24:29.641Z,66.49
2018-09-22T02:25:29.653Z,66.04
2018-09-22T02:26:29.775Z,66.49
2018-09-22T02:27:29.683Z,66.52
2018-09-22T02:28:29.690Z,66.91
2018-09-22T02:29:29.714Z,66.30
2018-09-22T02:30:29.736Z,66.87
2018-09-22T02:31:29.840Z,66.52
2018-09-22T02:32:29.758Z,66.14
2018-09-22T02:33:29.760Z,66.61
2018-09-22T02:34:29.779Z,66.52
2018-09-22T02:35:29.789Z,66.68
2018-09-22T02:36:29.812Z,66.30
2018-09-22T02:37:29.918Z,66.49
2018-09-22T02:38:29.832Z,66.39
2018-09-22T02:39:29.859Z,66.30
2018-09-22T02:40:29.870Z,67.07
2018-09-22T02:41:29.881Z,67.07
2018-09-22T02:42:29.986Z,66.77
2018-09-22T02:43:29.913Z,66.77
2018-09-22T02:44:29.914Z,66.77
2018-09-22T02:45:29.946Z,66.87
2018-09-22T02:46:29.953Z,66.49
2018-09-22T02:47:30.059Z,67.25
2018-09-22T02:48:29.970Z,66.87
2018-09-22T02:49:29.994Z,66.87
2018-09-22T02:50:30.009Z,66.97
2018-09-22T02:51:30.016Z,66.87
2018-09-22T02:52:30.131Z,66.58
2018-09-22T02:53:30.036Z,67.16
2018-09-22T02:54:30.050Z,67.25
2018-09-22T02:55:30.065Z,67.25
2018-09-22T02:56:30.076Z,67.45
2018-09-22T02:57:30.193Z,67.64
2018-09-22T02:58:30.099Z,67.93
2018-09-22T02:59:30.132Z,67.93
2018-09-22T03:00:30.150Z,67.45
2018-09-22T03:01:30.162Z,68.02
2018-09-22T03:02:30.263Z,68.12
2018-09-22T03:03:30.187Z,67.64
2018-09-22T03:04:30.192Z,68.21
2018-09-22T03:05:30.213Z,68.51
2018-09-22T03:06:30.218Z,68.21
2018-09-22T03:07:30.323Z,68.37
2018-09-22T03:08:30.254Z,68.12
2018-09-22T03:09:30.266Z,68.79
2018-09-22T03:10:30.284Z,68.89
2018-09-22T03:11:30.297Z,69.05
2018-09-22T03:12:30.406Z,69.08
2018-09-22T03:13:30.316Z,69.08
2018-09-22T03:14:30.325Z,68.89
2018-09-22T03:15:30.362Z,68.95
2018-09-22T03:16:30.371Z,69.05
2018-09-22T03:17:30.519Z,69.14
2018-09-22T03:18:30.391Z,69.05
2018-09-22T03:19:30.406Z,69.24
2018-09-22T03:20:30.407Z,69.34
2018-09-22T03:21:30.424Z,69.43
2018-09-22T03:22:30.585Z,69.62
2018-09-22T03:23:30.448Z,69.62
2018-09-22T03:24:30.470Z,69.43
2018-09-22T03:25:30.478Z,68.76
2018-09-22T03:26:30.493Z,69.14
2018-09-22T03:27:30.764Z,69.24
2018-09-22T03:28:30.530Z,69.34
2018-09-22T03:29:30.545Z,69.81
2018-09-22T03:30:30.562Z,69.43
2018-09-22T03:31:30.568Z,69.53
2018-09-22T03:32:30.677Z,69.62
2018-09-22T03:33:30.588Z,69.27
2018-09-22T03:34:30.600Z,69.43
2018-09-22T03:35:30.627Z,69.62
2018-09-22T03:36:30.638Z,69.24
2018-09-22T03:37:30.754Z,69.14
2018-09-22T03:38:30.667Z,69.53
2018-09-22T03:39:30.664Z,70.01
2018-09-22T03:40:30.684Z,70.29
2018-09-22T03:41:30.695Z,70.29
2018-09-22T03:42:30.870Z,70.20
2018-09-22T03:43:30.735Z,70.20
2018-09-22T03:44:30.738Z,70.20
2018-09-22T03:45:30.766Z,70.97
2018-09-22T03:46:30.758Z,71.16
2018-09-22T03:47:30.792Z,71.16
2018-09-22T03:48:30.892Z,71.06
2018-09-22T03:49:30.797Z,71.93
2018-09-22T03:50:30.825Z,71.45
2018-09-22T03:51:30.834Z,72.22
2018-09-22T03:52:30.852Z,72.12
2018-09-22T03:53:30.961Z,72.41
2018-09-22T03:54:30.874Z,72.60
2018-09-22T03:55:30.905Z,72.79
2018-09-22T03:56:30.904Z,73.27
2018-09-22T03:57:30.913Z,73.27
2018-09-22T03:58:31.075Z,73.56
2018-09-22T03:59:30.950Z,73.56
2018-09-22T04:00:30.949Z,74.13
2018-09-22T04:01:30.968Z,74.23
2018-09-22T04:02:30.998Z,75.10
2018-09-22T04:03:31.092Z,74.81
2018-09-22T04:04:31.023Z,75.54
2018-09-22T04:05:31.017Z,75.48
2018-09-22T04:06:31.048Z,75.35
2018-09-22T04:07:31.056Z,75.35
2018-09-22T04:08:31.209Z,76.02
2018-09-22T04:09:31.070Z,76.02
2018-09-22T04:10:31.097Z,76.02
2018-09-22T04:11:31.097Z,76.59
2018-09-22T04:12:31.115Z,76.12
2018-09-22T04:13:31.239Z,76.59
2018-09-22T04:14:31.354Z,77.08
2018-09-22T04:15:31.152Z,76.79
2018-09-22T04:16:31.164Z,77.17
2018-09-22T04:17:31.193Z,77.08
2018-09-22T04:18:31.292Z,76.98
2018-09-22T04:19:31.219Z,77.08
2018-09-22T04:20:31.228Z,77.56
2018-09-22T04:21:31.235Z,77.75
2018-09-22T04:22:31.258Z,77.56
2018-09-22T04:23:31.372Z,77.56
2018-09-22T04:24:31.285Z,77.94
2018-09-22T04:25:31.289Z,78.13
2018-09-22T04:26:31.298Z,78.03
2018-09-22T04:27:31.321Z,78.03
2018-09-22T04:28:31.435Z,78.23
2018-09-22T04:29:31.337Z,78.80
2018-09-22T04:30:31.351Z,78.70
2018-09-22T04:31:31.360Z,78.13
2018-09-22T04:32:31.388Z,78.52
2018-09-22T04:33:31.593Z,78.23
2018-09-22T04:34:31.418Z,78.03
2018-09-22T04:35:31.425Z,78.13
2018-09-22T04:36:31.445Z,78.13
2018-09-22T04:37:31.447Z,78.03
2018-09-22T04:38:31.566Z,77.94
2018-09-22T04:39:31.483Z,78.32
2018-09-22T04:40:31.498Z,78.32
2018-09-22T04:41:31.511Z,78.52
2018-09-22T04:42:31.515Z,77.84
2018-09-22T04:43:31.687Z,78.23
2018-09-22T04:44:31.556Z,77.75
2018-09-22T04:45:31.569Z,77.36
2018-09-22T04:46:31.566Z,77.36
2018-09-22T04:47:31.585Z,77.17
2018-09-22T04:48:31.693Z,77.17
2018-09-22T04:49:31.622Z,77.65
2018-09-22T04:50:31.620Z,76.98
2018-09-22T04:51:31.631Z,76.88
2018-09-22T04:52:31.650Z,76.50
2018-09-22T04:53:31.767Z,77.26
2018-09-22T04:54:31.680Z,77.08
2018-09-22T04:55:31.683Z,77.26
2018-09-22T04:56:31.710Z,77.84
2018-09-22T04:57:31.727Z,77.65
2018-09-22T04:58:31.878Z,77.84
2018-09-22T04:59:31.754Z,77.75
2018-09-22T05:00:31.763Z,77.17
2018-09-22T05:01:31.782Z,77.56
2018-09-22T05:02:31.796Z,77.56
2018-09-22T05:03:31.792Z,77.51
2018-09-22T05:04:31.906Z,77.42
2018-09-22T05:05:31.825Z,77.80
2018-09-22T05:06:31.843Z,77.80
2018-09-22T05:07:31.855Z,77.61
2018-09-22T05:08:31.862Z,77.90
2018-09-22T05:09:32.037Z,78.28
2018-09-22T05:10:31.903Z,77.71
2018-09-22T05:11:31.905Z,78.09
2018-09-22T05:12:31.923Z,78.38
2018-09-22T05:13:31.915Z,78.47
2018-09-22T05:14:32.047Z,78.77
2018-09-22T05:15:31.944Z,78.57
2018-09-22T05:16:31.960Z,78.77
2018-09-22T05:17:31.986Z,78.96
2018-09-22T05:18:31.999Z,78.77
2018-09-22T05:19:32.118Z,78.77
2018-09-22T05:20:32.032Z,78.67
2018-09-22T05:21:32.026Z,78.67
2018-09-22T05:22:32.058Z,78.38
2018-09-22T05:23:32.056Z,79.05
2018-09-22T05:24:32.213Z,79.44
2018-09-22T05:25:32.085Z,79.82
2018-09-22T05:26:32.105Z,79.82
2018-09-22T05:27:32.115Z,79.72
2018-09-22T05:28:32.130Z,79.63
2018-09-22T05:29:32.292Z,79.72
2018-09-22T05:30:32.154Z,79.34
2018-09-22T05:31:32.171Z,79.57
2018-09-22T05:32:32.181Z,79.96
2018-09-22T05:33:32.371Z,79.57
2018-09-22T05:34:32.361Z,79.14
2018-09-22T05:35:32.225Z,79.76
2018-09-22T05:36:32.236Z,79.38
2018-09-22T05:37:32.257Z,79.96
2018-09-22T05:38:32.258Z,79.67
2018-09-22T05:39:32.376Z,79.86
2018-09-22T05:40:32.292Z,80.15
2018-09-22T05:41:32.299Z,79.86
2018-09-22T05:42:32.313Z,79.38
2018-09-22T05:43:32.321Z,79.67
2018-09-22T05:44:32.487Z,80.05
2018-09-22T05:45:32.353Z,79.67
2018-09-22T05:46:32.357Z,79.67
2018-09-22T05:47:32.365Z,78.70
2018-09-22T05:48:32.392Z,78.80
2018-09-22T05:49:32.554Z,78.90
2018-09-22T05:50:32.414Z,78.99
2018-09-22T05:51:32.417Z,79.19
2018-09-22T05:52:32.449Z,79.28
2018-09-22T05:53:32.450Z,78.61
2018-09-22T05:54:32.620Z,78.99
2018-09-22T05:55:32.475Z,78.52
2018-09-22T05:56:32.497Z,77.75
2018-09-22T05:57:32.512Z,78.70
2018-09-22T05:58:32.512Z,78.52
2018-09-22T05:59:32.625Z,78.47
2018-09-22T06:00:32.537Z,78.80
2018-09-22T06:01:32.568Z,78.32
2018-09-22T06:02:32.582Z,78.61
2018-09-22T06:03:32.652Z,78.32
2018-09-22T06:04:32.756Z,78.42
2018-09-22T06:05:32.618Z,78.61
2018-09-22T06:06:32.619Z,78.90
2018-09-22T06:07:32.638Z,78.90
2018-09-22T06:08:32.677Z,78.61
2018-09-22T06:09:32.857Z,78.70
2018-09-22T06:10:32.688Z,78.42
2018-09-22T06:11:32.684Z,78.70
2018-09-22T06:12:32.697Z,78.23
2018-09-22T06:13:32.707Z,78.32
2018-09-22T06:14:32.738Z,77.65
2018-09-22T06:15:32.911Z,77.94
2018-09-22T06:16:32.766Z,77.17
2018-09-22T06:17:32.761Z,76.88
2018-09-22T06:18:32.827Z,76.59
2018-09-22T06:19:32.797Z,76.79
2018-09-22T06:20:32.912Z,75.45
2018-09-22T06:21:32.816Z,74.48
2018-09-22T06:22:32.837Z,74.77
2018-09-22T06:23:32.901Z,74.87
2018-09-22T06:24:32.861Z,74.29
2018-09-22T06:25:33.035Z,73.81
2018-09-22T06:26:32.887Z,73.81
2018-09-22T06:27:32.909Z,73.33
2018-09-22T06:28:32.923Z,73.14
2018-09-22T06:29:32.924Z,73.14
2018-09-22T06:30:33.098Z,72.95
2018-09-22T06:31:32.950Z,73.24
2018-09-22T06:32:32.968Z,73.72
2018-09-22T06:33:33.060Z,73.43
2018-09-22T06:34:33.001Z,73.52
2018-09-22T06:35:33.157Z,73.33
2018-09-22T06:36:33.020Z,72.75
2018-09-22T06:37:33.238Z,72.75
2018-09-22T06:38:33.050Z,73.14
2018-09-22T06:39:33.061Z,72.18
2018-09-22T06:40:33.171Z,71.98
2018-09-22T06:41:33.105Z,72.28
2018-09-22T06:42:33.102Z,72.18
2018-09-22T06:43:33.125Z,71.98
2018-09-22T06:44:33.135Z,71.12
2018-09-22T06:45:33.237Z,71.70
2018-09-22T06:46:33.152Z,71.89
2018-09-22T06:47:33.171Z,71.41
2018-09-22T06:48:33.181Z,71.22
2018-09-22T06:49:33.204Z,71.51
2018-09-22T06:50:33.373Z,71.22
2018-09-22T06:51:33.230Z,70.93
2018-09-22T06:52:33.231Z,70.55
2018-09-22T06:53:33.258Z,70.55
2018-09-22T06:54:33.272Z,70.64
2018-09-22T06:55:33.382Z,70.17
2018-09-22T06:56:33.297Z,70.64
2018-09-22T06:57:33.302Z,70.36
2018-09-22T06:58:33.314Z,70.36
2018-09-22T06:59:33.324Z,70.64
2018-09-22T07:00:33.454Z,70.17
2018-09-22T07:01:33.350Z,70.36
2018-09-22T07:02:33.377Z,70.07
2018-09-22T07:03:33.377Z,69.68
2018-09-22T07:04:33.410Z,69.87
2018-09-22T07:05:33.564Z,69.87
2018-09-22T07:06:33.480Z,69.40
2018-09-22T07:07:33.445Z,69.49
2018-09-22T07:08:33.445Z,69.59
2018-09-22T07:09:33.470Z,69.97
2018-09-22T07:10:33.624Z,69.30
2018-09-22T07:11:33.485Z,69.59
2018-09-22T07:12:33.497Z,69.49
2018-09-22T07:13:33.526Z,69.40
2018-09-22T07:14:33.534Z,69.87
2018-09-22T07:15:33.699Z,69.59
2018-09-22T07:16:33.562Z,69.40
2018-09-22T07:17:33.581Z,69.49
2018-09-22T07:18:33.590Z,69.78
2018-09-22T07:19:33.618Z,69.87
2018-09-22T07:20:33.765Z,69.97
2018-09-22T07:21:33.619Z,70.07
2018-09-22T07:22:33.628Z,69.87
2018-09-22T07:23:33.656Z,70.07
2018-09-22T07:24:33.670Z,69.87
2018-09-22T07:25:33.684Z,69.78
2018-09-22T07:26:33.834Z,70.36
2018-09-22T07:27:33.708Z,69.93
2018-09-22T07:28:33.726Z,70.32
2018-09-22T07:29:33.736Z,69.78
2018-09-22T07:30:33.751Z,70.32
2018-09-22T07:31:33.761Z,70.42
2018-09-22T07:32:33.926Z,70.42
2018-09-22T07:33:33.772Z,70.13
2018-09-22T07:34:33.804Z,70.51
2018-09-22T07:35:33.801Z,70.61
2018-09-22T07:36:33.826Z,70.80
2018-09-22T07:37:33.994Z,71.09
2018-09-22T07:38:33.837Z,70.61
2018-09-22T07:39:33.974Z,70.61
2018-09-22T07:40:33.880Z,70.90
2018-09-22T07:41:33.885Z,71.19
2018-09-22T07:42:33.995Z,70.90
2018-09-22T07:43:33.920Z,70.70
2018-09-22T07:44:33.936Z,71.28
2018-09-22T07:45:33.941Z,71.57
2018-09-22T07:46:33.961Z,72.05
2018-09-22T07:47:34.120Z,71.95
2018-09-22T07:48:33.981Z,72.43
2018-09-22T07:49:33.989Z,72.33
2018-09-22T07:50:33.999Z,72.53
2018-09-22T07:51:34.012Z,72.63
2018-09-22T07:52:34.187Z,72.53
2018-09-22T07:53:34.041Z,72.91
2018-09-22T07:54:34.105Z,72.72
2018-09-22T07:55:34.072Z,73.00
2018-09-22T07:56:34.088Z,72.91
2018-09-22T07:57:34.200Z,73.39
2018-09-22T07:58:34.122Z,73.20
2018-09-22T07:59:34.121Z,72.91
2018-09-22T08:00:34.209Z,73.49
2018-09-22T08:01:34.140Z,73.10
2018-09-22T08:02:34.304Z,73.00
2018-09-22T08:03:34.174Z,72.91
2018-09-22T08:04:34.188Z,73.30
2018-09-22T08:05:34.191Z,73.87
2018-09-22T08:06:34.204Z,73.68
2018-09-22T08:07:34.365Z,73.58
2018-09-22T08:08:34.239Z,73.97
2018-09-22T08:09:34.253Z,74.06
2018-09-22T08:10:34.260Z,74.16
2018-09-22T08:11:34.326Z,74.83
2018-09-22T08:12:34.430Z,74.64
2018-09-22T08:13:34.296Z,74.73
2018-09-22T08:14:34.309Z,74.79
2018-09-22T08:15:34.338Z,75.60
2018-09-22T08:16:34.342Z,75.40
2018-09-22T08:17:34.495Z,75.50
2018-09-22T08:18:34.371Z,75.70
2018-09-22T08:19:34.386Z,75.50
2018-09-22T08:20:34.391Z,75.60
2018-09-22T08:21:34.410Z,75.60
2018-09-22T08:22:34.520Z,75.89
2018-09-22T08:23:34.424Z,75.60
2018-09-22T08:24:34.449Z,75.79
2018-09-22T08:25:34.448Z,75.40
2018-09-22T08:26:34.468Z,75.89
2018-09-22T08:27:34.643Z,75.60
2018-09-22T08:28:34.496Z,75.60
2018-09-22T08:29:34.513Z,75.50
2018-09-22T08:30:34.512Z,75.21
2018-09-22T08:31:34.524Z,75.02
2018-09-22T08:32:34.694Z,74.73
2018-09-22T08:33:34.561Z,75.40
2018-09-22T08:34:34.576Z,75.21
2018-09-22T08:35:34.572Z,74.73
2018-09-22T08:36:34.964Z,75.31
2018-09-22T08:37:34.707Z,75.40
2018-09-22T08:38:34.610Z,75.21
2018-09-22T08:39:34.639Z,75.12
2018-09-22T08:40:34.654Z,74.93
2018-09-22T08:41:34.656Z,74.83
2018-09-22T08:42:34.768Z,75.40
2018-09-22T08:43:34.681Z,75.60
2018-09-22T08:44:34.708Z,75.31
2018-09-22T08:45:34.707Z,75.31
2018-09-22T08:46:34.715Z,75.70
2018-09-22T08:47:34.732Z,75.21
2018-09-22T08:48:34.905Z,75.40
2018-09-22T08:49:34.828Z,75.40
2018-09-22T08:50:34.782Z,75.89
2018-09-22T08:51:34.808Z,75.40
2018-09-22T08:52:34.800Z,76.17
2018-09-22T08:53:34.960Z,76.07
2018-09-22T08:54:34.835Z,76.17
2018-09-22T08:55:34.837Z,75.98
2018-09-22T08:56:34.864Z,76.65
2018-09-22T08:57:34.870Z,75.31
2018-09-22T08:58:35.063Z,75.70
2018-09-22T08:59:34.905Z,76.75
2018-09-22T09:00:34.943Z,76.46
2018-09-22T09:01:34.930Z,76.37
2018-09-22T09:02:34.938Z,76.56
2018-09-22T09:03:35.090Z,76.56
2018-09-22T09:04:34.953Z,76.84
2018-09-22T09:05:34.973Z,76.84
2018-09-22T09:06:34.990Z,76.94
2018-09-22T09:07:34.993Z,76.56
2018-09-22T09:08:35.169Z,76.46
2018-09-22T09:09:35.032Z,76.46
2018-09-22T09:10:35.031Z,75.89
2018-09-22T09:11:35.126Z,75.89
2018-09-22T09:12:35.062Z,75.98
2018-09-22T09:13:35.229Z,75.98
2018-09-22T09:14:35.104Z,76.56
2018-09-22T09:15:35.098Z,76.17
2018-09-22T09:16:35.112Z,76.04
2018-09-22T09:17:35.122Z,75.79
2018-09-22T09:18:35.284Z,76.75
2018-09-22T09:19:35.155Z,76.56
2018-09-22T09:20:35.172Z,76.75
2018-09-22T09:21:35.185Z,77.51
2018-09-22T09:22:35.196Z,77.33
2018-09-22T09:23:35.349Z,77.13
2018-09-22T09:24:35.219Z,76.65
2018-09-22T09:25:35.225Z,76.94
2018-09-22T09:26:35.237Z,77.13
2018-09-22T09:27:35.315Z,76.75
2018-09-22T09:28:35.415Z,76.56
2018-09-22T09:29:35.287Z,76.84
2018-09-22T09:30:35.298Z,76.37
2018-09-22T09:31:35.301Z,75.60
2018-09-22T09:32:35.324Z,75.31
2018-09-22T09:33:35.444Z,75.40
2018-09-22T09:34:35.354Z,75.70
2018-09-22T09:35:35.355Z,75.79
2018-09-22T09:36:35.377Z,74.93
2018-09-22T09:37:35.382Z,75.12
2018-09-22T09:38:35.553Z,75.60
2018-09-22T09:39:35.423Z,75.79
2018-09-22T09:40:35.419Z,76.56
2018-09-22T09:41:35.444Z,76.75
2018-09-22T09:42:35.447Z,76.46
2018-09-22T09:43:35.625Z,75.79
2018-09-22T09:44:35.477Z,75.12
2018-09-22T09:45:35.497Z,74.16
2018-09-22T09:46:35.501Z,74.44
2018-09-22T09:47:35.513Z,73.77
2018-09-22T09:48:35.679Z,73.58
2018-09-22T09:49:35.545Z,74.06
2018-09-22T09:50:35.554Z,74.35
2018-09-22T09:51:35.577Z,73.39
2018-09-22T09:52:35.596Z,74.35
2018-09-22T09:53:35.691Z,74.35
2018-09-22T09:54:35.653Z,73.33
2018-09-22T09:55:35.622Z,72.18
2018-09-22T09:56:35.641Z,72.66
2018-09-22T09:57:35.649Z,73.04
2018-09-22T09:58:35.813Z,72.85
2018-09-22T09:59:35.673Z,73.33
2018-09-22T10:00:35.697Z,73.04
2018-09-22T10:01:35.714Z,72.85
2018-09-22T10:02:35.715Z,72.37
2018-09-22T10:03:35.736Z,73.24
2018-09-22T10:04:35.874Z,71.31
2018-09-22T10:05:35.761Z,69.78
2018-09-22T10:06:35.772Z,69.81
2018-09-22T10:07:35.799Z,68.66
2018-09-22T10:08:35.805Z,68.34
2018-09-22T10:09:35.974Z,68.85
2018-09-22T10:10:35.835Z,68.08
2018-09-22T10:11:35.860Z,67.51
2018-09-22T10:12:35.864Z,66.93
2018-09-22T10:13:35.882Z,66.26
2018-09-22T10:14:36.028Z,66.55
2018-09-22T10:15:35.895Z,65.88
2018-09-22T10:16:35.903Z,66.46
2018-09-22T10:17:35.935Z,65.97
2018-09-22T10:18:35.953Z,65.40
2018-09-22T10:19:36.099Z,65.97
2018-09-22T10:20:35.963Z,65.69
2018-09-22T10:21:35.990Z,65.01
2018-09-22T10:22:36.006Z,65.11
2018-09-22T10:23:36.005Z,64.95
2018-09-22T10:24:36.170Z,64.95
2018-09-22T10:25:36.053Z,64.76
2018-09-22T10:26:36.067Z,62.93
2018-09-22T10:27:36.072Z,62.90
2018-09-22T10:28:36.173Z,62.45
2018-09-22T10:29:36.249Z,62.61
2018-09-22T10:30:36.108Z,62.90
2018-09-22T10:31:36.130Z,62.23
2018-09-22T10:32:36.134Z,62.52
2018-09-22T10:33:36.150Z,62.61
2018-09-22T10:34:36.322Z,62.42
2018-09-22T10:35:36.182Z,62.71
2018-09-22T10:36:36.217Z,62.90
2018-09-22T10:37:36.223Z,62.84
2018-09-22T10:38:36.238Z,62.35
2018-09-22T10:39:36.478Z,62.26
2018-09-22T10:40:36.269Z,61.68
2018-09-22T10:41:36.269Z,61.78
2018-09-22T10:42:36.292Z,61.01
2018-09-22T10:43:36.314Z,61.30
2018-09-22T10:44:36.463Z,61.33
2018-09-22T10:45:36.340Z,59.69
2018-09-22T10:46:36.357Z,59.41
2018-09-22T10:47:36.369Z,59.69
2018-09-22T10:48:36.382Z,59.41
2018-09-22T10:49:36.555Z,58.54
2018-09-22T10:50:36.413Z,58.54
2018-09-22T10:51:36.437Z,58.64
2018-09-22T10:52:36.495Z,58.83
2018-09-22T10:53:36.452Z,58.64
2018-09-22T10:54:36.578Z,58.76
2018-09-22T10:55:36.535Z,58.18
2018-09-22T10:56:36.496Z,57.22
2018-09-22T10:57:36.515Z,56.16
2018-09-22T10:58:36.528Z,55.68
2018-09-22T10:59:36.701Z,55.30
2018-09-22T11:00:36.571Z,55.33
2018-09-22T11:01:36.575Z,54.75
2018-09-22T11:02:36.595Z,54.65
2018-09-22T11:03:36.613Z,54.34
2018-09-22T11:04:36.779Z,54.43
2018-09-22T11:05:36.642Z,54.43
2018-09-22T11:06:36.650Z,55.98
2018-09-22T11:07:36.675Z,55.40
2018-09-22T11:08:36.684Z,55.20
2018-09-22T11:09:36.697Z,55.78
2018-09-22T11:10:36.823Z,55.49
2018-09-22T11:11:36.739Z,55.71
2018-09-22T11:12:36.753Z,55.33
2018-09-22T11:13:36.773Z,55.23
2018-09-22T11:14:36.775Z,54.46
2018-09-22T11:15:36.971Z,53.88
2018-09-22T11:16:36.805Z,53.59
2018-09-22T11:17:36.840Z,54.56
2018-09-22T11:18:36.850Z,54.94
2018-09-22T11:19:36.855Z,53.50
2018-09-22T11:20:37.028Z,54.56
2018-09-22T11:21:36.892Z,53.88
2018-09-22T11:22:36.898Z,54.36
2018-09-22T11:23:36.923Z,54.46
2018-09-22T11:24:36.943Z,53.98
2018-09-22T11:25:37.043Z,54.36
2018-09-22T11:26:36.976Z,53.02
2018-09-22T11:27:36.988Z,52.75
2018-09-22T11:28:37.008Z,52.18
2018-09-22T11:29:37.011Z,51.21
2018-09-22T11:30:37.184Z,50.63
2018-09-22T11:31:37.052Z,50.85
2018-09-22T11:32:37.066Z,50.66
2018-09-22T11:33:37.080Z,50.27
2018-09-22T11:34:37.103Z,49.32
2018-09-22T11:35:37.276Z,49.41
2018-09-22T11:36:37.121Z,49.70
2018-09-22T11:37:37.154Z,49.60
2018-09-22T11:38:37.170Z,49.02
2018-09-22T11:39:37.188Z,47.80
2018-09-22T11:40:37.345Z,47.22
2018-09-22T11:41:37.211Z,46.76
2018-09-22T11:42:37.230Z,46.37
2018-09-22T11:43:37.242Z,46.18
2018-09-22T11:44:37.269Z,45.89
2018-09-22T11:45:37.438Z,45.21
2018-09-22T11:46:37.309Z,45.79
2018-09-22T11:47:37.322Z,46.47
2018-09-22T11:48:37.339Z,45.12
2018-09-22T11:49:37.360Z,45.04
2018-09-22T11:50:37.513Z,44.76
2018-09-22T11:51:37.389Z,43.41
2018-09-22T11:52:37.400Z,43.52
2018-09-22T11:53:37.421Z,42.18
2018-09-22T11:54:37.433Z,41.69
2018-09-22T11:55:37.597Z,41.50
2018-09-22T11:56:37.511Z,41.78
2018-09-22T11:57:37.500Z,41.88
2018-09-22T11:58:37.498Z,42.56
2018-09-22T11:59:37.517Z,42.36
2018-09-22T12:00:37.697Z,42.39
2018-09-22T12:01:37.565Z,41.13
2018-09-22T12:02:37.584Z,40.75
2018-09-22T12:03:37.592Z,42.00
2018-09-22T12:04:37.616Z,41.52
2018-09-22T12:05:37.748Z,40.75
2018-09-22T12:06:37.736Z,40.36
2018-09-22T12:07:37.670Z,39.78
2018-09-22T12:08:37.687Z,39.41
2018-09-22T12:09:37.696Z,38.45
2018-09-22T12:10:37.864Z,38.35
2018-09-22T12:11:37.732Z,38.28
2018-09-22T12:12:37.752Z,38.48
2018-09-22T12:13:37.783Z,37.52
2018-09-22T12:14:37.792Z,36.84
2018-09-22T12:15:37.912Z,37.13
2018-09-22T12:16:37.841Z,37.90
2018-09-22T12:17:37.848Z,38.00
2018-09-22T12:18:37.867Z,37.04
2018-09-22T12:19:37.876Z,37.23
2018-09-22T12:20:37.998Z,38.00
2018-09-22T12:21:37.929Z,38.48
2018-09-22T12:22:37.947Z,38.29
2018-09-22T12:23:37.955Z,38.29
2018-09-22T12:24:37.974Z,38.29
2018-09-22T12:25:38.093Z,38.10
2018-09-22T12:26:38.013Z,38.29
2018-09-22T12:27:38.024Z,38.29
2018-09-22T12:28:38.046Z,38.46
2018-09-22T12:29:38.074Z,38.28
2018-09-22T12:30:38.180Z,38.28
2018-09-22T12:31:38.113Z,37.90
2018-09-22T12:32:38.130Z,37.32
2018-09-22T12:33:38.147Z,38.31
2018-09-22T12:34:38.151Z,37.34
2018-09-22T12:35:38.287Z,36.28
2018-09-22T12:36:38.206Z,36.94
2018-09-22T12:37:38.214Z,38.29
2018-09-22T12:38:38.244Z,38.20
2018-09-22T12:39:38.260Z,37.98
2018-09-22T12:40:38.379Z,37.32
2018-09-22T12:41:38.303Z,37.04
2018-09-22T12:42:38.306Z,37.23
2018-09-22T12:43:38.336Z,37.34
2018-09-22T12:44:38.349Z,37.05
2018-09-22T12:45:38.522Z,36.47
2018-09-22T12:46:38.406Z,34.55
2018-09-22T12:47:38.407Z,35.52
2018-09-22T12:48:38.429Z,33.41
2018-09-22T12:49:38.444Z,34.77
2018-09-22T12:50:38.622Z,34.28
2018-09-22T12:51:38.485Z,33.01
2018-09-22T12:52:38.505Z,33.59